North Shore City, New Zealand
Current Conditions -  °F | °C
As of 9:30 AM on Tuesday 25 Nov 2014 (Local Time) from NZAA Reporting Station
Broken Clouds Broken Clouds  
Wind Chill: 68°   Ceiling: 1700
Heat Index: 68°   Visibility: 6mi
Dew Point: 61°   Wind: 10mph
Humidity: 78%   Direction: 240°WSW
Pressure: 30.03"   Gusts: NA
Location:  36.8°S, 174.75°E
Report Text: NZAA 242130Z AUTO 24009KT 9999 BKN017/// 20/16 Q1017 NOSIG
Loading
Personal Weather Stations






























Interactive Weather Map New forecast layout! Learn more

10-Day Weather Forecast

Advertisements
Track Severe Weather on mobile